createdAt,value
2023-04-24T00:04:15.407Z,6.88
2023-04-24T00:09:18.804Z,8.35
2023-04-24T00:14:23.975Z,11.93
2023-04-24T00:19:27.246Z,8.23
2023-04-24T00:24:30.900Z,9.07
2023-04-24T00:29:35.676Z,8.00
2023-04-24T00:34:39.071Z,9.15
2023-04-24T00:39:42.916Z,13.02
2023-04-24T00:44:48.120Z,16.02
2023-04-24T00:49:52.127Z,8.07
2023-04-24T00:54:56.611Z,12.15
2023-04-24T01:00:01.962Z,8.85
2023-04-24T01:05:06.393Z,9.77
2023-04-24T01:10:10.705Z,9.48
2023-04-24T01:15:15.349Z,10.50
2023-04-24T01:20:20.210Z,9.80
2023-04-24T01:25:26.899Z,9.60
2023-04-24T01:30:31.187Z,8.70
2023-04-24T01:35:35.474Z,9.10
2023-04-24T01:40:40.721Z,10.05
2023-04-24T01:45:44.024Z,12.23
2023-04-24T01:50:47.713Z,11.25
2023-04-24T01:55:52.593Z,8.90
2023-04-24T02:01:00.626Z,10.35
2023-04-24T02:06:05.182Z,9.32
2023-04-24T02:11:11.205Z,9.90
2023-04-24T02:16:14.514Z,11.52
2023-04-24T02:21:17.864Z,12.32
2023-04-24T02:26:22.712Z,11.07
2023-04-24T02:31:28.829Z,10.73
2023-04-24T02:36:32.882Z,12.45
2023-04-24T02:41:38.028Z,11.57
2023-04-24T02:46:42.917Z,12.98
2023-04-24T02:51:46.256Z,13.10
2023-04-24T02:56:51.537Z,13.10
2023-04-24T03:01:55.527Z,11.38
2023-04-24T03:06:58.896Z,14.23
2023-04-24T03:12:04.129Z,14.50
2023-04-24T03:17:07.808Z,12.13
2023-04-24T03:22:12.251Z,11.50
2023-04-24T03:27:18.122Z,12.65
2023-04-24T03:32:33.809Z,12.95
2023-04-24T03:37:38.603Z,15.18
2023-04-24T03:43:04.086Z,10.50
2023-04-24T03:48:08.636Z,13.82
2023-04-24T03:53:12.321Z,12.40
2023-04-24T03:58:19.718Z,12.43
2023-04-24T04:03:23.555Z,13.25
2023-04-24T04:08:27.535Z,12.52
2023-04-24T04:13:32.816Z,15.05
2023-04-24T04:18:36.488Z,13.50
2023-04-24T04:23:41.390Z,13.40
2023-04-24T04:28:53.055Z,12.18
2023-04-24T04:33:56.882Z,18.00
2023-04-24T04:39:00.950Z,11.32
2023-04-24T04:44:22.720Z,13.45
2023-04-24T04:49:26.605Z,12.88
2023-04-24T04:54:30.197Z,13.48
2023-04-24T04:59:36.211Z,14.37
2023-04-24T05:04:44.573Z,13.20
2023-04-24T05:09:49.257Z,11.75
2023-04-24T05:14:54.964Z,13.95
2023-04-24T05:19:59.140Z,13.95
2023-04-24T05:25:03.885Z,14.33
2023-04-24T05:30:23.535Z,15.40
2023-04-24T05:35:27.990Z,14.05
2023-04-24T05:40:31.889Z,13.63
2023-04-24T05:45:37.419Z,8.82
2023-04-24T05:50:41.125Z,7.10
2023-04-24T05:55:45.038Z,8.40
2023-04-24T06:00:50.928Z,5.88
2023-04-24T06:05:55.133Z,4.90
2023-04-24T06:11:01.731Z,6.88
2023-04-24T06:16:08.142Z,5.47
2023-04-24T06:21:18.440Z,4.00
2023-04-24T06:26:23.305Z,4.90
2023-04-24T06:31:28.180Z,3.60
2023-04-24T06:41:35.882Z,4.37
2023-04-24T06:46:41.924Z,2.42
2023-04-24T06:51:46.115Z,2.05
2023-04-24T06:56:51.209Z,2.83
2023-04-24T07:06:59.933Z,3.63
2023-04-24T07:13:20.409Z,3.28
2023-04-24T07:18:25.483Z,1.00
2023-04-24T07:23:30.056Z,3.72
2023-04-24T07:28:33.488Z,1.60
2023-04-24T07:33:38.843Z,1.23
2023-04-24T07:38:42.320Z,2.08
2023-04-24T07:43:46.973Z,2.22
2023-04-24T07:49:05.403Z,3.20
2023-04-24T07:54:16.289Z,2.58
2023-04-24T07:59:19.832Z,3.78
2023-04-24T08:04:24.753Z,2.60
2023-04-24T08:09:28.497Z,1.98
2023-04-24T08:14:33.290Z,1.40
2023-04-24T08:25:43.643Z,2.10
2023-04-24T08:35:50.459Z,3.75
2023-04-24T08:41:28.813Z,0.75
2023-04-24T08:46:32.625Z,1.02
2023-04-24T08:51:38.774Z,1.38
2023-04-24T08:56:45.903Z,2.17
2023-04-24T09:01:50.889Z,1.17
2023-04-24T09:12:02.201Z,1.25
2023-04-24T09:23:21.933Z,2.47
2023-04-24T09:28:32.051Z,1.80
2023-04-24T09:33:36.391Z,2.58
2023-04-24T09:38:40.274Z,0.82
2023-04-24T09:43:46.282Z,2.37
2023-04-24T09:48:49.665Z,2.17
2023-04-24T09:53:55.308Z,2.67
2023-04-24T09:59:09.611Z,3.22
2023-04-24T10:04:18.901Z,1.42
2023-04-24T10:09:24.951Z,2.40
2023-04-24T10:14:31.320Z,6.00
2023-04-24T10:19:36.836Z,5.15
2023-04-24T10:24:43.403Z,2.35
2023-04-24T10:29:52.241Z,1.48
2023-04-24T10:34:58.002Z,2.05
2023-04-24T10:40:02.690Z,3.67
2023-04-24T10:45:20.116Z,1.27
2023-04-24T10:50:24.155Z,2.73
2023-04-24T10:55:48.485Z,1.17
2023-04-24T11:01:00.753Z,2.22
2023-04-24T11:06:06.366Z,1.38
2023-04-24T11:11:12.382Z,1.63
2023-04-24T11:16:23.018Z,2.08
2023-04-24T11:21:27.395Z,1.67
2023-04-24T11:26:33.549Z,1.58
2023-04-24T11:31:40.015Z,0.50
2023-04-24T11:36:45.232Z,2.28
2023-04-24T11:41:48.979Z,2.40
2023-04-24T11:46:56.614Z,1.15
2023-04-24T11:52:01.887Z,1.92
2023-04-24T11:57:07.197Z,1.52
2023-04-24T12:02:21.510Z,2.38
2023-04-24T12:07:26.037Z,2.20
2023-04-24T12:12:30.273Z,2.70
2023-04-24T12:17:36.273Z,2.58
2023-04-24T12:22:47.586Z,2.10
2023-04-24T12:27:54.962Z,2.17
2023-04-24T12:33:03.180Z,3.45
2023-04-24T12:38:07.815Z,2.03
2023-04-24T12:43:16.456Z,1.40
2023-04-24T12:48:22.204Z,2.10
2023-04-24T12:53:27.715Z,3.17
2023-04-24T12:58:31.221Z,1.65
2023-04-24T13:03:37.117Z,1.30
2023-04-24T13:08:40.759Z,2.80
2023-04-24T13:13:44.899Z,3.60
2023-04-24T13:18:50.252Z,1.33
2023-04-24T13:23:54.161Z,1.98
2023-04-24T13:28:57.700Z,2.38
2023-04-24T13:34:04.643Z,2.07
2023-04-24T13:39:09.798Z,2.35
2023-04-24T13:44:13.434Z,2.50
2023-04-24T13:49:18.236Z,2.55
2023-04-24T13:59:26.885Z,2.15
2023-04-24T14:04:32.505Z,2.80
2023-04-24T14:09:36.175Z,3.00
2023-04-24T14:14:39.620Z,2.15
2023-04-24T14:19:44.907Z,3.00
2023-04-24T14:29:57.578Z,3.13
2023-04-24T14:35:02.372Z,1.83
2023-04-24T14:45:15.946Z,1.80
2023-04-24T14:50:23.038Z,2.10
2023-04-24T14:55:27.987Z,2.30
2023-04-24T15:00:31.560Z,2.10
2023-04-24T15:05:36.871Z,3.13
2023-04-24T15:10:40.944Z,1.92
2023-04-24T15:15:44.783Z,2.33
2023-04-24T15:20:49.836Z,2.33
2023-04-24T15:25:53.614Z,2.10
2023-04-24T15:30:57.183Z,2.80
2023-04-24T15:36:04.111Z,4.18
2023-04-24T15:41:07.589Z,2.85
2023-04-24T15:46:11.284Z,1.60
2023-04-24T15:51:16.020Z,2.95
2023-04-24T15:56:20.312Z,1.35
2023-04-24T16:01:24.996Z,3.30
2023-04-24T16:06:29.696Z,1.70
2023-04-24T16:11:36.452Z,3.85
2023-04-24T16:16:40.303Z,3.30
2023-04-24T16:21:44.897Z,5.05
2023-04-24T16:26:49.363Z,2.55
2023-04-24T16:31:52.806Z,1.53
2023-04-24T16:36:57.800Z,2.35
2023-04-24T16:42:01.862Z,5.20
2023-04-24T16:47:05.808Z,4.07
2023-04-24T16:52:11.901Z,2.67
2023-04-24T16:57:15.652Z,2.75
2023-04-24T17:02:20.087Z,5.78
2023-04-24T17:07:25.045Z,3.17
2023-04-24T17:12:28.338Z,1.92
2023-04-24T17:17:31.607Z,2.15
2023-04-24T17:22:36.306Z,3.83
2023-04-24T17:27:39.650Z,1.45
2023-04-24T17:32:43.630Z,3.10
2023-04-24T17:37:48.411Z,2.03
2023-04-24T17:42:52.027Z,1.77
2023-04-24T17:47:56.747Z,3.97
2023-04-24T17:53:01.556Z,2.75
2023-04-24T17:58:05.379Z,3.30
2023-04-24T18:03:10.066Z,2.30
2023-04-24T18:13:18.877Z,1.17
2023-04-24T18:18:22.106Z,0.57
2023-04-24T18:23:27.993Z,0.40
2023-04-24T18:28:31.683Z,2.17
2023-04-24T18:33:35.358Z,0.43
2023-04-24T18:38:40.233Z,1.40
2023-04-24T18:43:43.622Z,1.60
2023-04-24T18:48:47.222Z,0.75
2023-04-24T18:53:52.379Z,0.60
2023-04-24T18:58:56.019Z,1.52
2023-04-24T19:03:59.457Z,2.22
2023-04-24T19:09:04.759Z,0.85
2023-04-24T19:14:08.370Z,1.50
2023-04-24T19:19:12.012Z,0.70
2023-04-24T19:24:19.171Z,1.67
2023-04-24T19:29:22.561Z,2.13
2023-04-24T19:34:26.435Z,4.05
2023-04-24T19:39:32.455Z,3.25
2023-04-24T19:44:35.922Z,2.38
2023-04-24T19:49:39.559Z,2.22
2023-04-24T19:54:45.033Z,1.95
2023-04-24T19:59:49.244Z,1.75
2023-04-24T20:04:53.178Z,1.60
2023-04-24T20:09:58.014Z,3.47
2023-04-24T20:15:02.489Z,2.28
2023-04-24T20:20:07.873Z,2.70
2023-04-24T20:30:19.921Z,3.97
2023-04-24T20:35:23.228Z,7.72
2023-04-24T20:40:29.828Z,3.28
2023-04-24T20:45:35.052Z,2.22
2023-04-24T20:50:41.921Z,6.55
2023-04-24T20:55:46.981Z,3.42
2023-04-24T21:00:51.015Z,6.15
2023-04-24T21:05:54.686Z,5.55
2023-04-24T21:10:59.484Z,7.18
2023-04-24T21:16:03.374Z,4.43
2023-04-24T21:21:07.338Z,4.07
2023-04-24T21:26:12.875Z,5.03
2023-04-24T21:31:16.713Z,4.18
2023-04-24T21:36:20.405Z,4.32
2023-04-24T21:41:25.416Z,4.63
2023-04-24T21:46:28.770Z,6.25
2023-04-24T21:51:32.475Z,6.90
2023-04-24T21:56:37.111Z,8.10
2023-04-24T22:01:40.432Z,8.40
2023-04-24T22:06:43.930Z,6.60
2023-04-24T22:11:48.793Z,7.55
2023-04-24T22:16:52.086Z,6.88
2023-04-24T22:21:56.022Z,6.43
2023-04-24T22:27:01.421Z,7.97
2023-04-24T22:37:08.387Z,5.38
2023-04-24T22:42:13.114Z,8.30
2023-04-24T22:47:17.757Z,6.72
2023-04-24T22:52:21.758Z,5.93
2023-04-24T22:57:26.672Z,6.60
2023-04-24T23:02:30.075Z,6.00
2023-04-24T23:07:33.766Z,4.90
2023-04-24T23:12:39.016Z,10.77
2023-04-24T23:17:42.408Z,6.72
2023-04-24T23:22:46.043Z,8.43
2023-04-24T23:27:51.500Z,6.50
2023-04-24T23:37:58.921Z,5.43
2023-04-24T23:43:07.985Z,4.97
2023-04-24T23:48:12.313Z,5.70
2023-04-24T23:53:15.713Z,8.70
2023-04-24T23:58:20.487Z,6.72
